Terminal Aerodrome Forecast
Issued by NWS

Home | Current Version | Previous Version | Text Only | Print | Product List | Glossary On
Versions: 1 2 3 4 5 6 7 8 9 10 11 12 13 14 15 16 17 18 19 20 21 22 23
000
FTUS43 KGRB 160400 AAA
TAFATW
TAF AMD
KATW 160427Z 1604/1624 10005KT 2SM -RA BR SCT035 OVC045
     FM160530 05005KT 1SM -RA BR OVC004
     FM161200 01007KT 2SM -RASN BR OVC007
     FM161500 35012KT 2SM -SN BR OVC007
     FM162000 34015KT 6SM BR OVC018 PROB30 1620/1624 5SM -SN BR
      OVC012=

USA.gov is the U.S. government's official web portal to all federal, state and local government web resources and services.